Time;durP1;ratioP1;P1;durP2;ratioP2;P2;SDS_P1;SDS_P2;PMS_P1;PMS_P2;Temp;Humidity;BMP_temperature;BMP_pressure;BME280_temperature;BME280_humidity;BME280_pressure;Samples;Min_cycle;Max_cycle;Signal;HPM_P1;HPM_P2
2023/05/21 00:01:31;;;;;;;3.08;1.40;;;20.70;57.20;;;;;;5074766;28;20044;-62
2023/05/21 00:03:58;;;;;;;2.92;0.90;;;20.70;56.50;;;;;;5073895;28;20055;-61
2023/05/21 00:06:24;;;;;;;3.28;1.10;;;20.70;56.50;;;;;;5074324;28;20060;-61
2023/05/21 00:08:49;;;;;;;2.38;1.40;;;20.70;56.50;;;;;;5073278;28;20037;-61
2023/05/21 00:11:15;;;;;;;2.47;1.05;;;20.70;56.50;;;;;;5072933;28;20045;-61
2023/05/21 00:13:40;;;;;;;1.95;1.10;;;20.70;56.50;;;;;;5074251;28;20037;-61
2023/05/21 00:16:06;;;;;;;1.88;1.20;;;20.70;56.50;;;;;;5074281;28;20097;-61
2023/05/21 00:18:33;;;;;;;2.38;1.10;;;20.70;56.50;;;;;;5073795;28;20047;-62
2023/05/21 00:20:59;;;;;;;2.38;1.20;;;20.70;56.60;;;;;;5074600;28;20041;-61
2023/05/21 00:23:25;;;;;;;2.15;1.38;;;20.70;56.50;;;;;;5073550;28;20503;-62
2023/05/21 00:25:51;;;;;;;2.13;1.23;;;20.70;56.50;;;;;;5073731;28;20040;-62
2023/05/21 00:28:17;;;;;;;2.80;1.30;;;20.70;56.50;;;;;;5055908;28;20134;-62
2023/05/21 00:30:42;;;;;;;2.00;1.13;;;20.70;56.50;;;;;;5074614;28;20067;-61
2023/05/21 00:33:09;;;;;;;2.25;1.20;;;20.70;56.50;;;;;;5073577;28;20492;-62
2023/05/21 00:35:35;;;;;;;2.40;1.20;;;20.70;56.50;;;;;;5074100;28;20129;-61
2023/05/21 00:38:00;;;;;;;1.80;1.23;;;20.70;56.60;;;;;;5074109;28;20094;-61
2023/05/21 00:40:26;;;;;;;2.35;1.23;;;20.60;56.50;;;;;;5073098;28;20052;-62
2023/05/21 00:42:55;;;;;;;2.63;1.10;;;20.60;56.50;;;;;;5074193;28;20085;-62
2023/05/21 00:45:22;;;;;;;2.17;1.30;;;20.60;56.50;;;;;;5073526;28;20047;-62
2023/05/21 00:47:48;;;;;;;2.90;1.23;;;20.60;56.50;;;;;;5071611;28;20078;-61
2023/05/21 00:50:13;;;;;;;2.20;1.20;;;20.60;56.60;;;;;;5073130;28;20075;-62
2023/05/21 00:52:44;;;;;;;2.53;1.05;;;20.60;56.50;;;;;;5073664;28;20044;-62
2023/05/21 00:55:09;;;;;;;3.00;1.20;;;20.60;56.50;;;;;;5072556;28;20048;-62
2023/05/21 00:57:38;;;;;;;2.35;1.10;;;20.60;56.60;;;;;;5072811;28;20102;-61
2023/05/21 01:00:07;;;;;;;2.25;0.98;;;20.60;56.60;;;;;;5072156;28;20385;-62
2023/05/21 01:02:35;;;;;;;2.33;1.10;;;20.60;56.60;;;;;;5073181;28;20476;-61
2023/05/21 01:05:03;;;;;;;1.67;1.00;;;20.60;56.60;;;;;;5072145;28;20072;-62
2023/05/21 01:07:28;;;;;;;2.00;1.00;;;20.60;56.60;;;;;;5072112;28;20052;-61
2023/05/21 01:09:54;;;;;;;2.97;1.13;;;20.60;56.60;;;;;;5073188;28;20094;-62
2023/05/21 01:12:19;;;;;;;2.33;1.20;;;20.60;56.60;;;;;;5071966;28;20110;-61
2023/05/21 01:14:45;;;;;;;1.98;0.90;;;20.60;56.60;;;;;;5071272;28;20041;-62
2023/05/21 01:17:11;;;;;;;1.90;1.08;;;20.60;56.70;;;;;;5054926;28;20051;-62
2023/05/21 01:19:37;;;;;;;3.10;1.23;;;20.60;56.60;;;;;;5055233;28;20102;-62
2023/05/21 01:22:06;;;;;;;3.53;1.50;;;20.60;56.60;;;;;;5071304;28;20037;-61
2023/05/21 01:24:32;;;;;;;2.05;1.15;;;20.60;56.60;;;;;;5072086;28;20503;-61
2023/05/21 01:26:59;;;;;;;2.38;1.20;;;20.60;56.70;;;;;;5072881;28;20049;-62
2023/05/21 01:29:24;;;;;;;2.40;1.35;;;20.60;56.70;;;;;;5072033;28;20059;-62
2023/05/21 01:32:25;;;;;;;1.95;1.13;;;20.60;56.70;;;;;;5072787;28;20391;-62
2023/05/21 01:35:02;;;;;;;1.92;1.10;;;20.60;56.70;;;;;;5071790;28;20127;-61
2023/05/21 01:37:35;;;;;;;1.75;1.00;;;20.50;56.70;;;;;;5072045;28;20091;-62
2023/05/21 01:40:10;;;;;;;2.00;1.10;;;20.50;56.70;;;;;;5071834;28;20102;-62
2023/05/21 01:42:36;;;;;;;2.95;1.10;;;20.50;56.60;;;;;;5054112;28;20045;-62
2023/05/21 01:45:04;;;;;;;2.25;1.20;;;20.50;56.60;;;;;;5071636;28;20048;-62
2023/05/21 01:47:30;;;;;;;2.17;1.00;;;20.50;56.70;;;;;;5072971;28;20047;-62
2023/05/21 01:49:55;;;;;;;2.00;1.15;;;20.60;56.70;;;;;;5054177;28;20408;-62
2023/05/21 01:52:21;;;;;;;2.38;1.30;;;20.50;56.70;;;;;;5054481;28;20377;-62
2023/05/21 01:54:48;;;;;;;1.98;1.10;;;20.50;56.70;;;;;;5071513;28;20507;-61
2023/05/21 01:57:15;;;;;;;2.47;1.10;;;20.50;56.70;;;;;;5071726;28;20045;-62
2023/05/21 01:59:43;;;;;;;2.60;1.30;;;20.50;56.70;;;;;;5072645;28;20491;-62
2023/05/21 02:02:08;;;;;;;4.57;1.20;;;20.50;56.80;;;;;;5071157;28;20041;-62
2023/05/21 02:04:34;;;;;;;3.03;1.20;;;20.50;56.80;;;;;;5069834;28;20052;-61
2023/05/21 02:07:01;;;;;;;1.65;1.10;;;20.50;56.80;;;;;;5071747;28;20063;-62
2023/05/21 02:09:26;;;;;;;3.13;1.20;;;20.50;56.80;;;;;;5071864;28;20404;-62
2023/05/21 02:11:52;;;;;;;2.28;1.25;;;20.50;56.80;;;;;;5071947;28;20041;-62
2023/05/21 02:14:17;;;;;;;3.45;1.10;;;20.50;56.80;;;;;;5070975;28;20051;-61
2023/05/21 02:16:43;;;;;;;1.60;1.08;;;20.50;56.80;;;;;;5072539;28;20068;-61
2023/05/21 02:19:10;;;;;;;3.10;1.30;;;20.50;56.90;;;;;;5071239;28;20072;-62
2023/05/21 02:21:35;;;;;;;2.65;1.20;;;20.50;56.80;;;;;;5072257;28;20055;-62
2023/05/21 02:24:01;;;;;;;2.25;1.20;;;20.50;56.90;;;;;;5072204;28;20044;-61
2023/05/21 02:26:27;;;;;;;3.17;1.35;;;20.50;56.90;;;;;;5071178;28;20060;-60
2023/05/21 02:28:54;;;;;;;2.47;1.25;;;20.50;56.90;;;;;;5072609;28;20045;-62
2023/05/21 02:31:19;;;;;;;2.35;1.08;;;20.50;56.80;;;;;;5071965;28;20099;-61
2023/05/21 02:33:45;;;;;;;3.70;1.33;;;20.50;56.80;;;;;;5071841;28;20044;-62
2023/05/21 02:36:12;;;;;;;1.67;0.95;;;20.40;56.80;;;;;;5073614;28;20384;-61
2023/05/21 02:38:44;;;;;;;2.70;1.30;;;20.50;56.90;;;;;;5074163;28;20113;-62
2023/05/21 02:41:10;;;;;;;1.95;1.00;;;20.40;56.80;;;;;;5075950;28;20052;-62
2023/05/21 02:43:35;;;;;;;1.95;1.10;;;20.40;56.80;;;;;;5076245;28;20086;-62
2023/05/21 02:46:01;;;;;;;2.08;1.05;;;20.50;56.90;;;;;;5074013;28;20036;-62
2023/05/21 02:48:27;;;;;;;2.70;1.10;;;20.40;56.90;;;;;;5075622;28;20051;-61
2023/05/21 02:50:53;;;;;;;1.98;1.20;;;20.40;56.80;;;;;;5075763;28;20047;-62
2023/05/21 02:53:18;;;;;;;2.15;0.95;;;20.40;56.90;;;;;;5074955;28;20049;-62
2023/05/21 02:55:44;;;;;;;2.50;1.00;;;20.40;56.90;;;;;;5075575;28;20040;-62
2023/05/21 02:58:12;;;;;;;2.28;1.10;;;20.40;56.90;;;;;;5075408;28;20083;-62
2023/05/21 03:00:37;;;;;;;1.67;0.93;;;20.40;56.90;;;;;;5075097;28;20051;-62
2023/05/21 03:03:03;;;;;;;2.55;1.02;;;20.40;56.90;;;;;;5075946;28;20049;-62
2023/05/21 03:05:28;;;;;;;2.05;1.15;;;20.40;56.90;;;;;;5075530;28;20047;-62
2023/05/21 03:07:54;;;;;;;2.42;1.02;;;20.40;56.90;;;;;;5073490;28;20040;-62
2023/05/21 03:10:20;;;;;;;3.10;1.17;;;20.40;56.90;;;;;;5075276;28;20049;-62
2023/05/21 03:12:46;;;;;;;1.88;1.15;;;20.40;56.90;;;;;;5075645;28;20072;-61
2023/05/21 03:15:13;;;;;;;2.00;1.30;;;20.40;56.90;;;;;;5073428;28;20071;-62
2023/05/21 03:17:41;;;;;;;3.60;1.33;;;20.40;56.90;;;;;;5075423;28;20091;-61
2023/05/21 03:20:07;;;;;;;2.63;1.20;;;20.40;56.90;;;;;;5074936;28;20780;-62
2023/05/21 03:22:33;;;;;;;3.17;1.10;;;20.40;56.90;;;;;;5074801;28;20051;-61
2023/05/21 03:25:00;;;;;;;3.10;1.25;;;20.40;56.90;;;;;;5075600;28;20044;-62
2023/05/21 03:27:26;;;;;;;2.70;1.02;;;20.40;56.90;;;;;;5074791;28;20533;-62
2023/05/21 03:29:54;;;;;;;2.05;1.20;;;20.40;56.90;;;;;;5073270;28;20044;-62
2023/05/21 03:32:20;;;;;;;2.53;1.30;;;20.40;56.90;;;;;;5074837;28;20044;-62
2023/05/21 03:34:45;;;;;;;2.38;1.00;;;20.40;57.00;;;;;;5074865;28;20135;-61
2023/05/21 03:37:11;;;;;;;2.35;1.17;;;20.40;57.00;;;;;;5074157;28;20135;-62
2023/05/21 03:39:36;;;;;;;2.75;1.35;;;20.30;56.90;;;;;;5074783;28;20087;-62
2023/05/21 03:42:02;;;;;;;2.47;0.90;;;20.30;56.90;;;;;;5073207;28;20040;-62
2023/05/21 03:44:31;;;;;;;1.65;1.00;;;20.30;56.90;;;;;;5074865;28;20036;-62
2023/05/21 03:46:56;;;;;;;2.55;1.40;;;20.40;56.90;;;;;;5073699;28;20045;-62
2023/05/21 03:49:22;;;;;;;2.75;1.27;;;20.30;56.90;;;;;;5073659;28;20044;-62
2023/05/21 03:51:47;;;;;;;3.33;1.10;;;20.30;56.90;;;;;;5072756;28;20040;-62
2023/05/21 03:54:13;;;;;;;2.22;1.00;;;20.30;56.90;;;;;;5074722;28;20085;-62
2023/05/21 03:56:38;;;;;;;1.50;1.02;;;20.30;56.90;;;;;;5073958;28;20544;-61
2023/05/21 03:59:04;;;;;;;1.75;1.10;;;20.30;56.90;;;;;;5073740;28;20452;-61
2023/05/21 04:01:31;;;;;;;1.90;1.15;;;20.30;56.90;;;;;;5066683;28;20041;-61
2023/05/21 04:03:57;;;;;;;1.63;1.02;;;20.30;56.90;;;;;;5065601;28;20381;-62
2023/05/21 04:06:22;;;;;;;1.85;1.15;;;20.30;56.90;;;;;;5072950;28;20033;-61
2023/05/21 04:08:48;;;;;;;2.00;1.10;;;20.30;56.90;;;;;;5072771;28;20499;-62
2023/05/21 04:11:14;;;;;;;2.72;1.35;;;20.30;56.90;;;;;;5072388;28;20040;-62
2023/05/21 04:13:39;;;;;;;1.80;1.00;;;20.30;56.90;;;;;;5074440;28;20090;-62
2023/05/21 04:16:07;;;;;;;3.13;1.30;;;20.30;57.00;;;;;;5074393;28;20059;-62
2023/05/21 04:18:33;;;;;;;2.75;1.40;;;20.30;57.00;;;;;;5072376;28;20040;-61
2023/05/21 04:21:00;;;;;;;2.88;1.27;;;20.30;57.00;;;;;;5072855;28;20040;-61
2023/05/21 04:23:26;;;;;;;2.33;1.27;;;20.30;57.00;;;;;;5073669;28;20120;-62
2023/05/21 04:25:52;;;;;;;2.15;1.45;;;20.30;57.00;;;;;;5073667;28;20238;-62
2023/05/21 04:28:20;;;;;;;2.50;1.00;;;20.30;57.00;;;;;;5073567;28;20048;-62
2023/05/21 04:30:46;;;;;;;;;;;20.30;57.00;;;;;;5074508;28;20063;-61
2023/05/21 04:33:16;;;;;;;2.03;1.05;;;20.30;57.00;;;;;;5072851;28;20356;-61
2023/05/21 04:35:45;;;;;;;2.70;1.15;;;20.30;57.10;;;;;;5073482;28;20123;-62
2023/05/21 04:38:11;;;;;;;1.67;1.05;;;20.30;57.00;;;;;;5073069;28;20051;-62
2023/05/21 04:40:37;;;;;;;3.20;1.35;;;20.30;57.10;;;;;;5073740;28;20056;-62
2023/05/21 04:43:03;;;;;;;3.97;1.40;;;20.20;57.00;;;;;;5073735;28;20045;-62
2023/05/21 04:45:29;;;;;;;1.70;0.95;;;20.30;57.10;;;;;;5072692;28;20476;-61
2023/05/21 04:47:59;;;;;;;1.95;1.15;;;20.30;57.10;;;;;;5073889;28;20055;-62
2023/05/21 04:50:24;;;;;;;2.00;1.05;;;20.30;57.10;;;;;;5073350;28;20109;-62
2023/05/21 04:52:50;;;;;;;2.25;1.27;;;20.30;57.10;;;;;;5072958;28;20446;-62
2023/05/21 04:55:17;;;;;;;2.95;1.42;;;20.20;57.00;;;;;;5073161;28;20040;-62
2023/05/21 04:57:43;;;;;;;2.45;1.10;;;20.20;57.00;;;;;;5073173;28;20041;-62
2023/05/21 05:00:09;;;;;;;2.42;1.20;;;20.30;57.10;;;;;;5072067;28;20045;-61
2023/05/21 05:02:34;;;;;;;2.22;1.17;;;20.20;57.00;;;;;;5073499;28;20072;-62
2023/05/21 05:05:00;;;;;;;1.38;0.88;;;20.20;57.00;;;;;;5073390;28;20095;-62
2023/05/21 05:07:25;;;;;;;2.97;1.50;;;20.20;57.10;;;;;;5072491;28;20072;-62
2023/05/21 05:09:51;;;;;;;2.20;1.13;;;20.20;57.00;;;;;;5073133;28;20044;-61
2023/05/21 05:12:17;;;;;;;1.60;1.05;;;20.20;57.10;;;;;;5072914;28;20036;-62
2023/05/21 05:14:42;;;;;;;2.63;1.00;;;20.20;57.10;;;;;;5072231;28;20055;-62
2023/05/21 05:17:09;;;;;;;3.97;1.48;;;20.20;57.10;;;;;;5073050;28;20036;-62
2023/05/21 05:19:35;;;;;;;1.98;0.82;;;20.20;57.10;;;;;;5073276;28;20055;-62
2023/05/21 05:22:00;;;;;;;2.28;1.25;;;20.20;57.10;;;;;;5072286;28;20045;-62
2023/05/21 05:24:26;;;;;;;3.03;1.30;;;20.20;57.10;;;;;;5071741;28;20051;-62
2023/05/21 05:26:52;;;;;;;3.03;1.33;;;20.20;57.10;;;;;;5072884;28;20057;-61
2023/05/21 05:29:17;;;;;;;2.70;1.40;;;20.20;57.10;;;;;;5072104;28;20185;-61
2023/05/21 05:31:43;;;;;;;1.80;1.27;;;20.20;57.10;;;;;;5072801;28;20044;-61
2023/05/21 05:34:08;;;;;;;5.93;1.15;;;20.20;57.10;;;;;;5072788;28;20044;-61
2023/05/21 05:36:34;;;;;;;2.17;1.30;;;20.20;57.10;;;;;;5072231;28;20040;-61
2023/05/21 05:38:59;;;;;;;3.45;1.55;;;20.20;57.90;;;;;;5072706;28;20450;-61
2023/05/21 05:41:25;;;;;;;4.35;1.25;;;20.30;57.30;;;;;;5071072;28;20040;-62
2023/05/21 05:43:51;;;;;;;3.80;1.60;;;20.30;57.30;;;;;;5072196;28;20526;-62
2023/05/21 05:46:16;;;;;;;2.40;1.20;;;20.30;57.30;;;;;;5072443;28;20161;-60
2023/05/21 05:48:42;;;;;;;3.17;1.10;;;20.30;57.40;;;;;;5072222;28;20036;-61
2023/05/21 05:51:08;;;;;;;5.72;1.40;;;20.30;57.30;;;;;;5072350;28;20514;-60
2023/05/21 05:53:33;;;;;;;5.30;1.27;;;20.30;57.40;;;;;;5072750;28;20396;-61
2023/05/21 05:55:59;;;;;;;3.33;1.17;;;20.30;57.40;;;;;;5071759;28;20392;-61
2023/05/21 05:58:24;;;;;;;3.38;1.30;;;20.30;57.50;;;;;;5072290;28;20484;-61
2023/05/21 06:00:51;;;;;;;3.72;1.30;;;20.30;57.50;;;;;;5072655;28;20041;-60
2023/05/21 06:03:16;;;;;;;4.05;1.27;;;20.30;57.50;;;;;;5071738;28;20118;-61
2023/05/21 06:05:42;;;;;;;3.55;1.20;;;20.30;58.20;;;;;;5072457;28;20490;-60
2023/05/21 06:08:08;;;;;;;5.28;1.10;;;20.30;57.50;;;;;;5071994;28;20500;-61
2023/05/21 06:10:33;;;;;;;3.53;1.20;;;20.30;57.60;;;;;;5071505;28;20139;-61
2023/05/21 06:12:59;;;;;;;5.72;1.30;;;20.30;57.60;;;;;;5078514;28;20166;-61
2023/05/21 06:15:25;;;;;;;3.35;1.35;;;20.30;57.80;;;;;;5075972;28;20396;-61
2023/05/21 06:17:51;;;;;;;2.97;1.30;;;20.30;57.90;;;;;;5075282;28;20049;-61
2023/05/21 06:20:16;;;;;;;6.82;2.42;;;20.30;57.90;;;;;;5075621;28;20400;-61
2023/05/21 06:22:42;;;;;;;3.17;1.30;;;20.40;58.00;;;;;;5075909;28;20396;-61
2023/05/21 06:25:09;;;;;;;3.20;1.25;;;20.40;58.10;;;;;;5073399;28;20040;-61
2023/05/21 06:27:36;;;;;;;3.55;1.40;;;20.40;58.20;;;;;;5075683;28;20055;-60
2023/05/21 06:30:02;;;;;;;2.72;1.35;;;20.40;58.20;;;;;;5076031;28;20037;-60
2023/05/21 06:32:27;;;;;;;3.58;1.30;;;20.40;58.30;;;;;;5074533;28;20098;-61
2023/05/21 06:34:53;;;;;;;5.15;1.40;;;20.40;58.30;;;;;;5075718;28;20040;-60
2023/05/21 06:37:22;;;;;;;4.70;1.95;;;20.40;58.30;;;;;;5074004;28;20040;-61
2023/05/21 06:39:47;;;;;;;2.88;1.30;;;20.40;58.30;;;;;;5074899;28;20095;-60
2023/05/21 06:42:13;;;;;;;4.60;1.23;;;20.40;58.30;;;;;;5075086;28;20040;-60
2023/05/21 06:44:39;;;;;;;2.60;1.52;;;20.40;58.30;;;;;;5087336;28;20403;-60
2023/05/21 06:47:04;;;;;;;2.78;1.35;;;20.40;58.40;;;;;;5095371;28;20393;-62
2023/05/21 06:49:31;;;;;;;2.70;1.25;;;20.40;58.50;;;;;;5095302;28;20047;-61
2023/05/21 06:51:56;;;;;;;3.90;1.45;;;20.40;58.40;;;;;;5095622;28;20115;-61
2023/05/21 06:54:22;;;;;;;2.80;1.30;;;20.50;58.50;;;;;;5083925;28;20131;-61
2023/05/21 06:56:48;;;;;;;2.95;1.42;;;20.50;58.50;;;;;;5072570;28;20048;-61
2023/05/21 06:59:13;;;;;;;3.45;1.23;;;20.50;58.40;;;;;;5073954;28;20048;-61
2023/05/21 07:01:41;;;;;;;4.15;1.25;;;20.50;58.40;;;;;;5055908;28;20039;-62
2023/05/21 07:04:07;;;;;;;4.18;1.40;;;20.50;58.40;;;;;;5053810;28;20492;-62
2023/05/21 07:06:33;;;;;;;3.13;1.38;;;20.50;58.50;;;;;;5054873;28;20045;-62
2023/05/21 07:08:59;;;;;;;3.83;1.40;;;20.50;58.40;;;;;;5068459;28;20135;-63
2023/05/21 07:11:27;;;;;;;5.47;1.50;;;20.50;58.50;;;;;;5074870;28;20519;-63
2023/05/21 07:13:54;;;;;;;4.07;1.30;;;20.50;58.40;;;;;;5074344;28;20049;-67
2023/05/21 07:16:19;;;;;;;6.40;1.75;;;20.50;58.40;;;;;;5071334;28;20040;-61
2023/05/21 07:18:45;;;;;;;7.57;1.63;;;20.50;58.40;;;;;;5072981;28;20037;-61
2023/05/21 07:21:11;;;;;;;6.88;1.58;;;20.50;58.50;;;;;;5073057;28;20056;-62
2023/05/21 07:23:36;;;;;;;6.20;1.30;;;20.50;58.70;;;;;;5074972;28;20037;-61
2023/05/21 07:26:02;;;;;;;6.47;1.75;;;20.50;58.70;;;;;;5074043;28;20470;-62
2023/05/21 07:28:27;;;;;;;9.07;1.80;;;20.60;58.90;;;;;;5070896;28;20044;-62
2023/05/21 07:30:53;;;;;;;7.43;1.70;;;20.50;58.90;;;;;;5074593;28;20140;-62
2023/05/21 07:33:21;;;;;;;7.40;1.80;;;20.60;58.90;;;;;;5073324;28;20131;-62
2023/05/21 07:35:47;;;;;;;9.02;1.60;;;20.60;58.90;;;;;;5073565;28;20049;-62
2023/05/21 07:38:12;;;;;;;7.32;1.77;;;20.60;58.80;;;;;;5074264;28;20383;-62
2023/05/21 07:40:38;;;;;;;6.40;1.38;;;20.60;58.70;;;;;;5074332;28;20045;-62
2023/05/21 07:43:03;;;;;;;7.00;2.08;;;20.60;58.60;;;;;;5073814;28;20044;-62
2023/05/21 07:45:29;;;;;;;8.48;1.70;;;20.60;58.60;;;;;;5074320;28;20032;-62
2023/05/21 07:47:55;;;;;;;5.50;1.30;;;20.60;58.60;;;;;;5074490;28;20064;-62
2023/05/21 07:50:21;;;;;;;5.43;1.50;;;20.60;58.50;;;;;;5073068;28;20041;-62
2023/05/21 07:52:46;;;;;;;3.72;1.60;;;20.60;58.50;;;;;;5074491;28;20565;-62
2023/05/21 07:55:12;;;;;;;4.25;1.60;;;20.60;58.40;;;;;;5083941;28;20124;-62
2023/05/21 07:57:37;;;;;;;3.95;1.50;;;20.60;58.40;;;;;;5072942;28;20072;-62
2023/05/21 08:00:07;;;;;;;4.30;1.35;;;20.60;58.30;;;;;;5072907;28;20037;-61
2023/05/21 08:02:32;;;;;;;6.35;1.60;;;20.60;58.30;;;;;;5080669;28;20128;-62
2023/05/21 08:05:00;;;;;;;3.05;1.23;;;20.60;58.20;;;;;;5093011;28;20122;-62
2023/05/21 08:07:26;;;;;;;3.40;1.67;;;20.60;58.20;;;;;;5073985;28;20045;-62
2023/05/21 08:09:52;;;;;;;3.78;1.45;;;20.60;58.20;;;;;;5071763;28;20051;-62
2023/05/21 08:12:18;;;;;;;4.15;1.60;;;20.60;58.20;;;;;;5053822;28;20059;-62
2023/05/21 08:14:44;;;;;;;4.13;1.42;;;20.60;58.10;;;;;;5054142;28;20040;-62
2023/05/21 08:17:12;;;;;;;3.38;1.30;;;20.60;58.10;;;;;;5071648;28;20049;-62
2023/05/21 08:19:38;;;;;;;3.92;1.50;;;20.70;58.10;;;;;;5073863;28;20044;-62
2023/05/21 08:22:05;;;;;;;4.47;1.48;;;20.60;58.00;;;;;;5073759;28;20041;-62
2023/05/21 08:24:31;;;;;;;4.65;1.55;;;20.70;58.10;;;;;;5071805;28;20097;-62
2023/05/21 08:26:56;;;;;;;4.38;1.42;;;20.70;58.00;;;;;;5072159;28;20084;-62
2023/05/21 08:29:22;;;;;;;3.22;1.40;;;20.70;58.00;;;;;;5072514;28;20063;-62
2023/05/21 08:31:47;;;;;;;4.95;1.40;;;20.70;58.00;;;;;;5071728;28;20044;-62
2023/05/21 08:34:13;;;;;;;2.15;1.30;;;20.70;58.00;;;;;;5072759;28;20558;-62
2023/05/21 08:36:41;;;;;;;4.35;1.55;;;20.70;57.90;;;;;;5073205;28;20045;-62
2023/05/21 08:39:07;;;;;;;5.43;1.50;;;20.80;57.90;;;;;;5072511;28;20048;-62
2023/05/21 08:41:34;;;;;;;3.55;1.42;;;20.80;57.90;;;;;;5080332;28;20044;-62
2023/05/21 08:44:00;;;;;;;3.58;1.65;;;20.80;57.80;;;;;;5072351;28;20078;-62
2023/05/21 08:46:27;;;;;;;4.55;1.50;;;20.80;57.80;;;;;;5072362;28;20119;-62
2023/05/21 08:48:53;;;;;;;3.15;1.67;;;20.90;57.80;;;;;;5072005;28;20036;-62
2023/05/21 08:51:20;;;;;;;2.58;1.20;;;20.90;57.80;;;;;;5060786;28;20052;-62
2023/05/21 08:53:46;;;;;;;4.05;1.75;;;20.90;57.70;;;;;;5052553;28;20056;-62
2023/05/21 08:56:11;;;;;;;5.38;2.00;;;20.90;57.60;;;;;;5060128;28;20044;-62
2023/05/21 08:58:39;;;;;;;3.00;1.38;;;21.00;57.60;;;;;;5072433;28;20155;-62
2023/05/21 09:01:04;;;;;;;3.65;1.58;;;21.00;57.60;;;;;;5051751;28;20056;-62
2023/05/21 09:03:31;;;;;;;3.67;1.50;;;21.00;57.60;;;;;;5052976;28;20048;-62
2023/05/21 09:05:57;;;;;;;3.53;1.52;;;21.00;57.60;;;;;;5065385;28;20116;-62
2023/05/21 09:08:30;;;;;;;2.60;1.30;;;21.00;57.50;;;;;;5071322;28;20447;-62
2023/05/21 09:10:56;;;;;;;3.70;1.48;;;21.00;57.50;;;;;;5071467;28;20048;-62
2023/05/21 09:13:21;;;;;;;3.50;1.55;;;21.00;57.40;;;;;;5071973;28;20048;-62
2023/05/21 09:15:47;;;;;;;4.22;1.42;;;21.00;57.40;;;;;;5071318;28;20126;-62
2023/05/21 09:18:13;;;;;;;2.95;1.67;;;21.00;57.40;;;;;;5054640;28;20047;-62
2023/05/21 09:20:38;;;;;;;4.32;1.27;;;21.00;57.40;;;;;;5070484;28;20514;-62
2023/05/21 09:23:05;;;;;;;3.97;1.55;;;21.00;57.30;;;;;;5072909;28;20040;-62
2023/05/21 09:25:31;;;;;;;2.83;1.42;;;21.10;57.40;;;;;;5072672;28;20052;-62
2023/05/21 09:27:57;;;;;;;4.65;1.38;;;21.10;57.40;;;;;;5070494;28;20048;-62
2023/05/21 09:30:23;;;;;;;2.97;1.40;;;21.10;57.40;;;;;;5072274;28;20048;-62
2023/05/21 09:32:56;;;;;;;2.45;1.45;;;21.10;57.40;;;;;;5072673;28;20048;-63
2023/05/21 09:35:21;;;;;;;2.55;1.50;;;21.10;57.40;;;;;;5071259;28;20048;-62
2023/05/21 09:37:48;;;;;;;4.80;1.75;;;21.10;57.40;;;;;;5070890;28;20040;-62
2023/05/21 09:40:18;;;;;;;3.53;1.67;;;21.10;57.30;;;;;;5072084;28;20496;-62
2023/05/21 09:42:50;;;;;;;3.55;1.50;;;21.10;57.30;;;;;;5071660;28;20040;-62
2023/05/21 09:45:23;;;;;;;4.03;1.58;;;21.10;57.40;;;;;;5070006;28;20131;-62
2023/05/21 09:47:49;;;;;;;4.00;1.73;;;21.10;57.30;;;;;;5069915;28;20511;-62
2023/05/21 09:50:19;;;;;;;3.45;1.90;;;21.10;57.30;;;;;;5072130;28;20036;-62
2023/05/21 09:52:45;;;;;;;2.42;1.60;;;21.10;57.30;;;;;;5072382;28;20044;-62
2023/05/21 09:55:11;;;;;;;4.07;1.63;;;21.10;57.40;;;;;;5085802;28;20101;-62
2023/05/21 09:57:41;;;;;;;3.63;1.48;;;21.10;57.30;;;;;;5074004;28;20056;-64
2023/05/21 10:00:08;;;;;;;3.03;1.17;;;21.10;57.30;;;;;;5072020;28;20080;-62
2023/05/21 10:02:34;;;;;;;2.53;1.63;;;21.10;57.30;;;;;;5071434;28;20044;-62
2023/05/21 10:05:00;;;;;;;3.45;1.67;;;21.10;57.30;;;;;;5054531;28;20038;-62
2023/05/21 10:07:25;;;;;;;4.03;1.60;;;21.10;57.30;;;;;;5070226;28;20415;-62
2023/05/21 10:09:57;;;;;;;3.17;1.45;;;21.10;57.30;;;;;;5071447;28;20152;-62
2023/05/21 10:12:26;;;;;;;3.72;1.40;;;21.20;57.40;;;;;;5077810;28;20506;-62
2023/05/21 10:14:55;;;;;;;2.58;1.63;;;21.20;57.30;;;;;;5092064;28;20093;-62
2023/05/21 10:17:21;;;;;;;3.50;1.67;;;21.20;57.30;;;;;;5077395;28;20048;-62
2023/05/21 10:19:46;;;;;;;3.65;1.50;;;21.20;57.30;;;;;;5054242;28;20114;-62
2023/05/21 10:22:12;;;;;;;3.28;1.48;;;21.20;57.30;;;;;;5071506;28;20048;-62
2023/05/21 10:24:39;;;;;;;2.60;1.60;;;21.20;57.30;;;;;;5069938;28;20045;-62
2023/05/21 10:27:05;;;;;;;3.63;1.88;;;21.20;57.30;;;;;;5070466;28;20052;-62
2023/05/21 10:29:30;;;;;;;3.22;1.50;;;21.20;57.30;;;;;;5070574;28;20543;-62
2023/05/21 10:31:56;;;;;;;2.85;1.65;;;21.20;57.20;;;;;;5070938;28;20139;-62
2023/05/21 10:34:21;;;;;;;3.67;1.77;;;21.20;57.20;;;;;;5053569;28;20087;-62
2023/05/21 10:36:48;;;;;;;3.22;1.70;;;21.20;57.20;;;;;;5069373;28;20480;-62
2023/05/21 10:39:13;;;;;;;2.28;1.65;;;21.30;57.20;;;;;;5070741;28;20044;-62
2023/05/21 10:42:02;;;;;;;2.70;1.50;;;21.30;57.30;;;;;;5070851;28;20036;-62
2023/05/21 10:45:00;;;;;;;3.83;1.65;;;21.30;57.30;;;;;;5050157;28;20448;-62
2023/05/21 10:47:50;;;;;;;4.00;1.70;;;21.30;57.20;;;;;;5071596;28;20101;-62
2023/05/21 10:50:34;;;;;;;3.30;1.75;;;21.30;57.20;;;;;;5070362;28;20500;-62
2023/05/21 10:53:31;;;;;;;3.85;1.90;;;21.30;57.20;;;;;;5070991;28;20037;-62
2023/05/21 10:56:13;;;;;;;3.58;2.00;;;21.30;57.20;;;;;;5071304;28;20052;-62
2023/05/21 10:58:46;;;;;;;3.65;1.92;;;21.30;57.20;;;;;;5058758;28;20071;-62
2023/05/21 11:01:12;;;;;;;3.78;1.80;;;21.30;57.20;;;;;;5056840;28;20047;-62
2023/05/21 11:03:38;;;;;;;4.20;2.17;;;21.40;57.30;;;;;;5074418;28;20048;-62
2023/05/21 11:06:05;;;;;;;5.18;2.20;;;21.40;57.20;;;;;;5072775;28;20028;-62
2023/05/21 11:08:33;;;;;;;3.72;2.10;;;21.30;57.20;;;;;;5074873;28;20125;-62
2023/05/21 11:10:59;;;;;;;3.33;1.90;;;21.40;57.30;;;;;;5075170;28;20045;-62
2023/05/21 11:13:31;;;;;;;3.15;1.95;;;21.40;57.30;;;;;;5074117;28;20040;-62
2023/05/21 11:16:04;;;;;;;2.45;1.70;;;21.40;57.20;;;;;;5075148;28;20047;-62
2023/05/21 11:18:38;;;;;;;3.70;2.10;;;21.40;57.20;;;;;;5074699;28;20188;-62
2023/05/21 11:21:07;;;;;;;3.80;2.20;;;21.40;57.30;;;;;;5074469;28;20048;-62
2023/05/21 11:23:55;;;;;;;3.28;2.15;;;21.40;57.30;;;;;;5072580;28;20504;-62
2023/05/21 11:26:21;;;;;;;;;;;21.40;57.30;;;;;;5074117;28;20048;-62
2023/05/21 11:29:05;;;;;;;5.45;2.40;;;21.40;57.30;;;;;;5074958;28;19920;-62
2023/05/21 11:31:37;;;;;;;3.65;2.05;;;21.40;57.40;;;;;;5073400;28;20044;-61
2023/05/21 11:34:18;;;;;;;4.30;2.05;;;21.40;57.30;;;;;;5072721;28;20389;-62
2023/05/21 11:36:45;;;;;;;3.67;2.30;;;21.40;57.30;;;;;;5073440;28;20045;-62
2023/05/21 11:39:16;;;;;;;3.95;2.20;;;21.40;57.30;;;;;;5074192;28;20388;-62
2023/05/21 11:41:52;;;;;;;5.15;2.45;;;21.40;57.30;;;;;;5073840;28;20045;-62
2023/05/21 11:44:18;;;;;;;5.00;2.38;;;21.40;57.30;;;;;;5073240;28;20040;-62
2023/05/21 11:46:43;;;;;;;5.25;2.70;;;21.50;57.30;;;;;;5056424;28;20085;-62
2023/05/21 11:49:09;;;;;;;4.70;2.47;;;21.50;57.40;;;;;;5073447;28;20051;-62
2023/05/21 11:51:39;;;;;;;4.38;2.60;;;21.50;57.40;;;;;;5039715;28;20045;-62
2023/05/21 11:54:06;;;;;;;5.05;2.58;;;21.50;57.40;;;;;;5074368;28;20404;-60
2023/05/21 11:56:31;;;;;;;3.63;2.30;;;21.50;57.40;;;;;;5072107;28;20547;-62
2023/05/21 11:58:59;;;;;;;4.38;2.47;;;21.50;57.30;;;;;;5074455;28;20127;-63
2023/05/21 12:01:25;;;;;;;4.63;2.40;;;21.50;57.30;;;;;;5055578;28;20045;-62
2023/05/21 12:03:50;;;;;;;5.60;2.67;;;21.50;57.30;;;;;;5074378;28;20530;-60
2023/05/21 12:06:17;;;;;;;4.90;2.50;;;21.50;57.30;;;;;;5074119;28;20424;-61
2023/05/21 12:08:44;;;;;;;4.40;2.63;;;21.50;57.30;;;;;;5072551;28;20052;-61
2023/05/21 12:11:09;;;;;;;5.85;3.00;;;21.60;57.40;;;;;;5074186;28;20120;-61
2023/05/21 12:13:35;;;;;;;5.10;2.83;;;21.50;57.30;;;;;;5072756;28;20123;-63
2023/05/21 12:16:01;;;;;;;4.30;2.60;;;21.60;57.40;;;;;;5072210;28;20049;-61
2023/05/21 12:18:27;;;;;;;4.57;2.88;;;21.60;57.40;;;;;;5055486;28;20371;-62
2023/05/21 12:20:52;;;;;;;4.78;3.10;;;21.60;57.40;;;;;;5072827;28;20055;-60
2023/05/21 12:23:22;;;;;;;4.25;2.53;;;21.60;57.40;;;;;;5072895;28;20087;-61
2023/05/21 12:25:47;;;;;;;4.25;2.78;;;21.60;57.40;;;;;;5074117;28;20048;-61
2023/05/21 12:28:13;;;;;;;4.30;3.20;;;21.60;57.40;;;;;;5073165;28;20132;-61
2023/05/21 12:30:38;;;;;;;4.88;2.92;;;21.60;57.40;;;;;;5054495;28;20048;-61
2023/05/21 12:33:04;;;;;;;5.35;3.25;;;21.60;57.50;;;;;;5073366;28;20076;-61
2023/05/21 12:35:30;;;;;;;5.68;2.88;;;21.60;57.40;;;;;;5073406;28;20048;-61
2023/05/21 12:37:56;;;;;;;4.60;3.10;;;21.60;57.40;;;;;;5072689;28;20063;-61
2023/05/21 12:40:21;;;;;;;5.60;3.15;;;21.60;57.40;;;;;;5073363;28;20045;-61
2023/05/21 12:42:48;;;;;;;6.00;3.40;;;21.60;57.40;;;;;;5055139;28;20033;-61
2023/05/21 12:45:14;;;;;;;4.43;3.10;;;21.60;57.40;;;;;;5071254;28;20174;-61
2023/05/21 12:47:39;;;;;;;5.32;3.20;;;21.70;57.40;;;;;;5073484;28;20119;-61